createdAt,value
2023-02-04T00:00:37.969Z,4.15
2023-02-04T00:03:04.763Z,4.22
2023-02-04T00:05:31.464Z,4.18
2023-02-04T00:08:00.265Z,4.20
2023-02-04T00:10:29.798Z,4.23
2023-02-04T00:12:57.517Z,4.31
2023-02-04T00:15:24.352Z,4.24
2023-02-04T00:17:50.976Z,4.22
2023-02-04T00:20:30.479Z,4.20
2023-02-04T00:22:57.564Z,4.22
2023-02-04T00:25:33.376Z,4.23
2023-02-04T00:28:06.904Z,4.12
2023-02-04T00:30:36.624Z,4.08
2023-02-04T00:33:03.488Z,4.16
2023-02-04T00:35:30.141Z,4.12
2023-02-04T00:37:59.352Z,4.10
2023-02-04T00:40:28.946Z,4.06
2023-02-04T00:42:58.118Z,4.15
2023-02-04T00:45:27.309Z,4.15
2023-02-04T00:47:53.967Z,4.14
2023-02-04T00:50:29.742Z,4.16
2023-02-04T00:53:01.896Z,4.16
2023-02-04T00:55:29.761Z,4.20
2023-02-04T00:57:59.018Z,4.17
2023-02-04T01:00:25.781Z,4.20
2023-02-04T01:02:56.882Z,4.16
2023-02-04T01:05:31.046Z,4.14
2023-02-04T01:07:59.794Z,4.16
2023-02-04T01:10:29.258Z,4.21
2023-02-04T01:12:57.111Z,4.33
2023-02-04T01:15:29.878Z,4.36
2023-02-04T01:18:04.049Z,4.39
2023-02-04T01:20:31.141Z,4.40
2023-02-04T01:23:00.858Z,4.35
2023-02-04T01:25:29.692Z,4.23
2023-02-04T01:28:01.912Z,4.14
2023-02-04T01:30:31.078Z,4.07
2023-02-04T01:33:00.254Z,4.08
2023-02-04T01:35:35.823Z,4.08
2023-02-04T01:38:02.504Z,4.06
2023-02-04T01:40:29.932Z,4.06
2023-02-04T01:43:02.796Z,4.07
2023-02-04T01:45:35.536Z,4.08
2023-02-04T01:48:04.608Z,4.05
2023-02-04T01:50:34.873Z,4.02
2023-02-04T01:53:01.925Z,4.02
2023-02-04T01:55:31.682Z,3.96
2023-02-04T01:58:08.762Z,3.98
2023-02-04T02:00:35.651Z,4.04
2023-02-04T02:03:04.988Z,4.05
2023-02-04T02:05:44.939Z,3.92
2023-02-04T02:08:12.717Z,3.77
2023-02-04T02:10:41.607Z,3.70
2023-02-04T02:13:11.986Z,3.70
2023-02-04T02:15:40.228Z,3.68
2023-02-04T02:18:07.513Z,3.62
2023-02-04T02:20:38.352Z,3.70
2023-02-04T02:23:22.560Z,3.67
2023-02-04T02:25:49.676Z,3.58
2023-02-04T02:28:19.321Z,3.62
2023-02-04T02:30:46.218Z,3.61
2023-02-04T02:33:17.351Z,3.63
2023-02-04T02:35:45.407Z,3.51
2023-02-04T02:38:12.685Z,3.55
2023-02-04T02:40:41.165Z,3.56
2023-02-04T02:43:14.469Z,3.50
2023-02-04T02:45:41.922Z,3.39
2023-02-04T02:48:10.388Z,3.41
2023-02-04T02:50:41.131Z,3.45
2023-02-04T02:53:16.621Z,3.38
2023-02-04T02:55:44.911Z,3.34
2023-02-04T02:58:22.617Z,3.29
2023-02-04T03:00:49.457Z,3.26
2023-02-04T03:03:22.233Z,3.27
2023-02-04T03:05:52.626Z,3.21
2023-02-04T03:08:20.065Z,3.19
2023-02-04T03:10:46.987Z,3.09
2023-02-04T03:13:14.972Z,3.19
2023-02-04T03:15:43.193Z,3.03
2023-02-04T03:18:10.604Z,3.02
2023-02-04T03:20:37.594Z,3.03
2023-02-04T03:23:04.178Z,3.05
2023-02-04T03:25:33.782Z,3.08
2023-02-04T03:28:00.612Z,3.17
2023-02-04T03:30:27.631Z,3.23
2023-02-04T03:33:04.884Z,3.24
2023-02-04T03:35:31.623Z,3.19
2023-02-04T03:38:07.288Z,3.17
2023-02-04T03:40:37.377Z,3.13
2023-02-04T03:43:04.132Z,3.15
2023-02-04T03:45:44.725Z,3.22
2023-02-04T03:48:12.202Z,3.13
2023-02-04T03:50:38.808Z,3.10
2023-02-04T03:53:05.569Z,3.02
2023-02-04T03:55:39.876Z,3.02
2023-02-04T03:58:06.534Z,3.04
2023-02-04T04:00:33.450Z,3.02
2023-02-04T04:03:00.707Z,2.98
2023-02-04T04:05:28.552Z,2.92
2023-02-04T04:07:59.691Z,2.89
2023-02-04T04:10:44.040Z,2.88
2023-02-04T04:13:10.671Z,2.90
2023-02-04T04:15:37.409Z,2.86
2023-02-04T04:18:09.012Z,2.88
2023-02-04T04:20:35.809Z,2.82
2023-02-04T04:23:02.444Z,2.84
2023-02-04T04:25:31.889Z,2.79
2023-02-04T04:28:01.341Z,2.73
2023-02-04T04:30:30.991Z,2.70
2023-02-04T04:32:57.857Z,2.69
2023-02-04T04:35:24.556Z,2.67
2023-02-04T04:38:02.536Z,2.72
2023-02-04T04:40:32.041Z,2.67
2023-02-04T04:42:58.940Z,2.70
2023-02-04T04:45:35.895Z,2.70
2023-02-04T04:48:02.569Z,2.70
2023-02-04T04:50:29.215Z,2.66
2023-02-04T04:52:59.647Z,2.68
2023-02-04T04:55:27.232Z,2.59
2023-02-04T04:57:53.867Z,2.60
2023-02-04T05:00:21.420Z,2.60
2023-02-04T05:02:48.269Z,2.53
2023-02-04T05:05:19.771Z,2.39
2023-02-04T05:07:46.431Z,2.42
2023-02-04T05:10:13.042Z,2.40
2023-02-04T05:12:39.641Z,2.30
2023-02-04T05:15:06.535Z,2.15
2023-02-04T05:17:36.163Z,2.04
2023-02-04T05:20:02.850Z,2.00
2023-02-04T05:22:29.496Z,1.97
2023-02-04T05:24:56.258Z,1.95
2023-02-04T05:27:22.985Z,1.91
2023-02-04T05:29:58.799Z,1.86
2023-02-04T05:32:26.555Z,1.81
2023-02-04T05:34:53.152Z,1.73
2023-02-04T05:37:24.300Z,1.73
2023-02-04T05:39:50.978Z,1.73
2023-02-04T05:42:17.572Z,1.70
2023-02-04T05:44:44.180Z,1.64
2023-02-04T05:47:10.817Z,1.55
2023-02-04T05:49:48.042Z,1.57
2023-02-04T05:52:14.639Z,1.51
2023-02-04T05:54:41.304Z,1.43
2023-02-04T05:57:10.064Z,1.43
2023-02-04T05:59:42.310Z,1.40
2023-02-04T06:02:11.240Z,1.33
2023-02-04T06:04:48.104Z,1.35
2023-02-04T06:07:14.789Z,1.29
2023-02-04T06:09:44.826Z,1.24
2023-02-04T06:12:21.752Z,1.21
2023-02-04T06:14:48.439Z,1.13
2023-02-04T06:17:15.094Z,1.08
2023-02-04T06:19:45.935Z,0.98
2023-02-04T06:22:12.657Z,0.99
2023-02-04T06:24:42.265Z,0.90
2023-02-04T06:27:09.020Z,0.84
2023-02-04T06:29:40.058Z,0.78
2023-02-04T06:32:13.995Z,0.72
2023-02-04T06:34:40.744Z,0.68
2023-02-04T06:37:12.647Z,0.65
2023-02-04T06:39:42.181Z,0.60
2023-02-04T06:42:09.403Z,0.58
2023-02-04T06:44:42.116Z,0.62
2023-02-04T06:47:16.323Z,0.53
2023-02-04T06:49:43.066Z,0.53
2023-02-04T06:52:10.993Z,0.50
2023-02-04T06:54:40.961Z,0.49
2023-02-04T06:57:11.184Z,0.50
2023-02-04T06:59:40.577Z,0.49
2023-02-04T07:02:12.500Z,0.49
2023-02-04T07:04:46.956Z,0.48
2023-02-04T07:07:23.246Z,0.43
2023-02-04T07:09:49.965Z,0.38
2023-02-04T07:12:16.592Z,0.33
2023-02-04T07:14:43.212Z,0.26
2023-02-04T07:17:13.440Z,0.16
2023-02-04T07:19:40.151Z,0.08
2023-02-04T07:22:14.328Z,-0.02
2023-02-04T07:24:41.053Z,-0.08
2023-02-04T07:27:15.262Z,-0.11
2023-02-04T07:29:41.910Z,-0.15
2023-02-04T07:32:17.625Z,-0.05
2023-02-04T07:34:44.327Z,-0.07
2023-02-04T07:37:14.268Z,-0.13
2023-02-04T07:39:49.969Z,-0.08
2023-02-04T07:42:16.961Z,-0.09
2023-02-04T07:44:51.669Z,-0.16
2023-02-04T07:47:18.331Z,-0.17
2023-02-04T07:49:47.915Z,-0.15
2023-02-04T07:52:14.535Z,-0.11
2023-02-04T07:54:47.170Z,-0.08
2023-02-04T07:57:13.924Z,0.03
2023-02-04T07:59:40.596Z,0.05
2023-02-04T08:02:07.646Z,0.08
2023-02-04T08:04:34.303Z,0.16
2023-02-04T08:07:12.072Z,0.21
2023-02-04T08:09:38.722Z,0.32
2023-02-04T08:12:07.012Z,0.43
2023-02-04T08:14:33.682Z,0.64
2023-02-04T08:17:00.380Z,0.74
2023-02-04T08:19:27.348Z,0.81
2023-02-04T08:22:36.120Z,0.87
2023-02-04T08:25:11.019Z,0.86
2023-02-04T08:27:42.937Z,0.89
2023-02-04T08:30:21.945Z,0.85
2023-02-04T08:33:15.714Z,0.90
2023-02-04T08:35:52.158Z,0.95
2023-02-04T08:38:37.678Z,1.02
2023-02-04T08:41:25.529Z,1.15
2023-02-04T08:44:20.897Z,1.22
2023-02-04T08:46:50.709Z,1.25
2023-02-04T08:49:45.712Z,1.29
2023-02-04T08:52:19.082Z,1.29
2023-02-04T08:54:45.768Z,1.29
2023-02-04T08:57:15.597Z,1.29
2023-02-04T08:59:42.225Z,1.36
2023-02-04T09:02:12.578Z,1.41
2023-02-04T09:04:39.314Z,1.44
2023-02-04T09:07:11.024Z,1.47
2023-02-04T09:09:41.796Z,1.48
2023-02-04T09:12:15.858Z,1.49
2023-02-04T09:14:45.456Z,1.49
2023-02-04T09:17:12.178Z,1.55
2023-02-04T09:19:46.238Z,1.60
2023-02-04T09:22:13.410Z,1.71
2023-02-04T09:24:42.368Z,1.82
2023-02-04T09:27:19.714Z,1.94
2023-02-04T09:29:49.622Z,2.04
2023-02-04T09:32:44.913Z,2.07
2023-02-04T09:39:01.068Z,2.13
2023-02-04T09:44:58.611Z,2.22
2023-02-04T09:47:53.953Z,2.36
2023-02-04T09:53:59.018Z,2.58
2023-02-04T09:56:26.002Z,2.34
2023-02-04T09:58:53.267Z,2.39
2023-02-04T10:01:22.599Z,2.22
2023-02-04T10:03:59.373Z,2.16
2023-02-04T10:06:26.523Z,2.19
2023-02-04T10:12:22.066Z,2.28
2023-02-04T10:19:03.505Z,2.17
2023-02-04T10:21:53.301Z,2.38
2023-02-04T10:24:51.282Z,2.50
2023-02-04T10:27:18.062Z,2.59
2023-02-04T10:29:58.412Z,2.71
2023-02-04T10:32:33.685Z,2.50
2023-02-04T10:35:01.950Z,2.55
2023-02-04T10:37:30.622Z,2.55
2023-02-04T10:39:57.413Z,2.52
2023-02-04T10:42:31.431Z,2.50
2023-02-04T10:44:58.680Z,2.58
2023-02-04T10:47:30.881Z,2.65
2023-02-04T10:50:02.888Z,2.72
2023-02-04T10:52:41.359Z,2.74
2023-02-04T10:55:14.825Z,2.83
2023-02-04T10:57:43.141Z,2.84
2023-02-04T11:00:21.652Z,2.85
2023-02-04T11:02:51.770Z,2.85
2023-02-04T11:05:21.112Z,2.86
2023-02-04T11:07:51.055Z,2.87
2023-02-04T11:10:40.986Z,2.87
2023-02-04T11:13:07.766Z,2.86
2023-02-04T11:15:50.299Z,2.96
2023-02-04T11:18:23.403Z,2.92
2023-02-04T11:20:52.076Z,2.85
2023-02-04T11:23:27.572Z,2.80
2023-02-04T11:26:20.313Z,2.87
2023-02-04T11:28:48.581Z,2.87
2023-02-04T11:31:28.069Z,2.89
2023-02-04T11:34:14.740Z,2.94
2023-02-04T11:36:59.671Z,3.00
2023-02-04T11:39:32.690Z,3.06
2023-02-04T11:42:00.789Z,3.12
2023-02-04T11:44:28.511Z,3.16
2023-02-04T11:46:59.642Z,3.15
2023-02-04T11:49:59.594Z,3.13
2023-02-04T11:52:26.206Z,3.14
2023-02-04T11:54:59.694Z,3.15
2023-02-04T11:57:26.853Z,3.04
2023-02-04T11:59:54.286Z,3.04
2023-02-04T12:02:24.084Z,3.00
2023-02-04T12:04:57.581Z,2.93
2023-02-04T12:07:29.264Z,2.97
2023-02-04T12:09:57.020Z,2.96
2023-02-04T12:12:25.604Z,3.08
2023-02-04T12:15:21.404Z,3.24
2023-02-04T12:18:03.475Z,3.18
2023-02-04T12:20:38.648Z,3.19
2023-02-04T12:23:05.898Z,3.13
2023-02-04T12:25:33.102Z,3.06
2023-02-04T12:28:07.633Z,3.10
2023-02-04T12:30:34.379Z,3.03
2023-02-04T12:33:01.157Z,3.10
2023-02-04T12:35:27.885Z,3.10
2023-02-04T12:38:05.052Z,3.04
2023-02-04T12:40:32.090Z,3.01
2023-02-04T12:43:01.075Z,3.19
2023-02-04T12:45:30.988Z,3.23
2023-02-04T12:48:00.611Z,3.24
2023-02-04T12:50:31.833Z,3.31
2023-02-04T12:53:01.666Z,3.42
2023-02-04T12:55:38.164Z,3.66
2023-02-04T12:58:10.167Z,3.64
2023-02-04T13:00:36.865Z,3.69
2023-02-04T13:03:03.831Z,3.77
2023-02-04T13:05:33.342Z,3.86
2023-02-04T13:08:00.233Z,3.84
2023-02-04T13:10:35.981Z,3.87
2023-02-04T13:13:04.659Z,4.04
2023-02-04T13:15:34.220Z,4.13
2023-02-04T13:18:00.924Z,4.28
2023-02-04T13:20:27.587Z,4.39
2023-02-04T13:23:01.647Z,4.37
2023-02-04T13:25:32.547Z,4.31
2023-02-04T13:28:01.453Z,4.32
2023-02-04T13:30:32.213Z,4.32
2023-02-04T13:33:01.544Z,4.21
2023-02-04T13:35:35.586Z,4.16
2023-02-04T13:38:02.299Z,4.29
2023-02-04T13:40:31.989Z,4.30
2023-02-04T13:43:00.729Z,4.30
2023-02-04T13:45:32.256Z,4.25
2023-02-04T13:48:04.912Z,4.13
2023-02-04T13:50:31.880Z,4.04
2023-02-04T13:53:02.925Z,4.05
2023-02-04T13:55:49.797Z,4.12
2023-02-04T13:58:19.390Z,4.09
2023-02-04T14:00:46.010Z,4.05
2023-02-04T14:03:12.638Z,4.06
2023-02-04T14:05:39.259Z,4.05
2023-02-04T14:08:05.916Z,4.04
2023-02-04T14:10:37.030Z,4.05
2023-02-04T14:13:04.861Z,4.10
2023-02-04T14:15:37.799Z,4.04
2023-02-04T14:18:11.991Z,4.00
2023-02-04T14:20:38.753Z,4.00
2023-02-04T14:23:06.061Z,3.89
2023-02-04T14:25:54.268Z,3.86
2023-02-04T14:28:23.992Z,3.82
2023-02-04T14:30:50.721Z,3.83
2023-02-04T14:33:18.222Z,3.91
2023-02-04T14:35:44.830Z,3.94
2023-02-04T14:38:12.328Z,3.84
2023-02-04T14:40:41.474Z,3.87
2023-02-04T14:43:10.990Z,3.79
2023-02-04T14:45:38.802Z,3.88
2023-02-04T14:48:13.303Z,3.85
2023-02-04T14:50:39.972Z,3.78
2023-02-04T14:53:06.845Z,3.82
2023-02-04T14:55:33.519Z,3.82
2023-02-04T14:58:04.903Z,3.78
2023-02-04T15:00:38.013Z,3.80
2023-02-04T15:03:04.796Z,3.85
2023-02-04T15:05:37.042Z,3.78
2023-02-04T15:08:21.934Z,3.85
2023-02-04T15:10:48.562Z,3.77
2023-02-04T15:13:15.732Z,3.82
2023-02-04T15:15:42.376Z,3.79
2023-02-04T15:18:15.736Z,3.78
2023-02-04T15:20:44.952Z,3.81
2023-02-04T15:23:19.584Z,3.77
2023-02-04T15:25:57.770Z,3.73
2023-02-04T15:28:33.905Z,3.71
2023-02-04T15:31:04.734Z,3.73
2023-02-04T15:34:07.683Z,3.64
2023-02-04T15:36:34.366Z,3.55
2023-02-04T15:39:04.406Z,3.42
2023-02-04T15:41:31.245Z,3.43
2023-02-04T15:44:18.305Z,3.32
2023-02-04T15:50:34.044Z,3.09
2023-02-04T15:53:13.402Z,2.92
2023-02-04T15:56:34.126Z,2.88
2023-02-04T15:59:02.395Z,2.74
2023-02-04T16:01:29.257Z,2.60
2023-02-04T16:07:41.957Z,2.40
2023-02-04T16:10:36.133Z,2.32
2023-02-04T16:17:34.430Z,2.10
2023-02-04T16:20:48.289Z,1.95
2023-02-04T16:24:09.194Z,1.98
2023-02-04T16:31:04.997Z,1.66
2023-02-04T16:34:20.880Z,1.51
2023-02-04T16:36:55.037Z,1.60
2023-02-04T16:39:54.335Z,1.50
2023-02-04T16:43:07.980Z,1.34
2023-02-04T16:45:37.915Z,1.35
2023-02-04T16:48:05.206Z,1.43
2023-02-04T16:50:51.997Z,1.34
2023-02-04T16:53:18.937Z,1.29
2023-02-04T16:55:46.289Z,1.24
2023-02-04T16:58:13.621Z,1.19
2023-02-04T17:00:50.311Z,1.09
2023-02-04T17:03:17.234Z,0.97
2023-02-04T17:05:44.014Z,0.91
2023-02-04T17:08:19.022Z,0.86
2023-02-04T17:11:07.161Z,0.78
2023-02-04T17:13:34.307Z,0.79
2023-02-04T17:16:04.316Z,0.78
2023-02-04T17:18:34.096Z,0.72
2023-02-04T17:21:00.820Z,0.74
2023-02-04T17:23:28.445Z,0.68
2023-02-04T17:25:57.384Z,0.58
2023-02-04T17:28:34.991Z,0.53
2023-02-04T17:31:03.916Z,0.45
2023-02-04T17:33:39.821Z,0.46
2023-02-04T17:36:11.268Z,0.43
2023-02-04T17:38:43.387Z,0.36
2023-02-04T17:41:10.157Z,0.30
2023-02-04T17:43:52.215Z,0.32
2023-02-04T17:46:26.645Z,0.23
2023-02-04T17:49:03.115Z,0.18
2023-02-04T17:51:29.969Z,0.14
2023-02-04T17:54:10.884Z,0.10
2023-02-04T17:56:55.380Z,0.10
2023-02-04T17:59:22.342Z,0.21
2023-02-04T18:01:50.041Z,0.37
2023-02-04T18:04:35.317Z,0.37
2023-02-04T18:07:11.607Z,0.39
2023-02-04T18:09:49.776Z,0.46
2023-02-04T18:12:18.475Z,0.60
2023-02-04T18:14:48.053Z,0.61
2023-02-04T18:17:23.779Z,0.67
2023-02-04T18:19:50.607Z,0.81
2023-02-04T18:22:18.085Z,0.91
2023-02-04T18:24:51.748Z,0.87
2023-02-04T18:27:24.583Z,0.94
2023-02-04T18:29:55.546Z,0.99
2023-02-04T18:32:34.026Z,1.19
2023-02-04T18:35:22.688Z,1.16
2023-02-04T18:37:51.518Z,1.27
2023-02-04T18:40:34.461Z,1.18
2023-02-04T18:43:24.625Z,1.26
2023-02-04T18:45:52.162Z,1.27
2023-02-04T18:48:22.686Z,1.35
2023-02-04T18:50:57.352Z,1.37
2023-02-04T18:53:40.601Z,1.53
2023-02-04T18:56:15.958Z,1.55
2023-02-04T18:58:43.429Z,1.54
2023-02-04T19:01:17.084Z,1.47
2023-02-04T19:03:59.768Z,1.49
2023-02-04T19:06:45.794Z,1.54
2023-02-04T19:09:21.677Z,1.56
2023-02-04T19:12:00.805Z,1.54
2023-02-04T19:14:43.382Z,1.52
2023-02-04T19:17:28.144Z,1.52
2023-02-04T19:20:01.718Z,1.48
2023-02-04T19:22:47.805Z,1.53
2023-02-04T19:25:32.444Z,1.55
2023-02-04T19:28:04.011Z,1.60
2023-02-04T19:30:30.843Z,1.69
2023-02-04T19:32:59.512Z,1.69
2023-02-04T19:35:28.994Z,1.59
2023-02-04T19:38:02.667Z,1.55
2023-02-04T19:40:29.324Z,1.63
2023-02-04T19:43:41.145Z,1.56
2023-02-04T19:46:23.936Z,1.45
2023-02-04T19:48:53.450Z,1.41
2023-02-04T19:51:21.215Z,1.39
2023-02-04T19:53:52.194Z,1.25
2023-02-04T19:56:36.574Z,1.14
2023-02-04T19:59:15.346Z,1.13
2023-02-04T20:01:42.136Z,1.00
2023-02-04T20:04:17.811Z,0.95
2023-02-04T20:06:45.392Z,1.07
2023-02-04T20:09:23.449Z,0.92
2023-02-04T20:11:55.597Z,0.78
2023-02-04T20:14:28.812Z,0.61
2023-02-04T20:16:58.406Z,0.43
2023-02-04T20:19:27.817Z,0.42
2023-02-04T20:22:04.417Z,0.36
2023-02-04T20:24:36.836Z,0.30
2023-02-04T20:27:17.604Z,0.26
2023-02-04T20:29:56.433Z,0.20
2023-02-04T20:32:39.809Z,0.07
2023-02-04T20:35:09.516Z,-0.01
2023-02-04T20:37:36.631Z,-0.12
2023-02-04T20:40:37.711Z,-0.23
2023-02-04T20:43:19.828Z,-0.21
2023-02-04T20:45:51.721Z,-0.18
2023-02-04T20:48:29.203Z,-0.16
2023-02-04T20:51:05.443Z,-0.14
2023-02-04T20:53:40.747Z,-0.06
2023-02-04T20:56:37.471Z,0.12
2023-02-04T20:59:26.755Z,0.20
2023-02-04T21:02:03.203Z,0.09
2023-02-04T21:04:54.194Z,0.19
2023-02-04T21:07:31.048Z,0.01
2023-02-04T21:10:01.818Z,0.00
2023-02-04T21:12:38.396Z,-0.05
2023-02-04T21:15:05.448Z,-0.04
2023-02-04T21:17:32.711Z,0.12
2023-02-04T21:20:04.566Z,-0.07
2023-02-04T21:22:34.094Z,-0.20
2023-02-04T21:25:04.138Z,-0.29
2023-02-04T21:27:41.386Z,-0.34
2023-02-04T21:30:11.033Z,-0.23
2023-02-04T21:32:48.434Z,-0.35
2023-02-04T21:35:18.537Z,-0.18
2023-02-04T21:37:45.232Z,-0.16
2023-02-04T21:40:22.050Z,-0.32
2023-02-04T21:42:49.549Z,-0.28
2023-02-04T21:45:20.129Z,-0.33
2023-02-04T21:47:47.768Z,-0.16
2023-02-04T21:50:16.417Z,-0.32
2023-02-04T21:52:46.231Z,-0.44
2023-02-04T21:55:22.164Z,-0.36
2023-02-04T21:57:51.842Z,-0.36
2023-02-04T22:00:20.283Z,-0.42
2023-02-04T22:03:15.939Z,-0.39
2023-02-04T22:05:48.937Z,-0.41
2023-02-04T22:08:19.257Z,-0.41
2023-02-04T22:10:48.717Z,-0.50
2023-02-04T22:13:34.022Z,-0.64
2023-02-04T22:16:00.900Z,-0.74
2023-02-04T22:18:36.649Z,-0.66
2023-02-04T22:21:03.390Z,-0.77
2023-02-04T22:23:31.466Z,-0.74
2023-02-04T22:26:05.038Z,-0.79
2023-02-04T22:28:33.900Z,-0.63
2023-02-04T22:31:03.315Z,-0.52
2023-02-04T22:33:37.966Z,-0.38
2023-02-04T22:36:04.850Z,-0.36
2023-02-04T22:38:34.045Z,-0.31
2023-02-04T22:41:09.776Z,-0.33
2023-02-04T22:43:36.568Z,-0.38
2023-02-04T22:46:03.495Z,-0.54
2023-02-04T22:48:55.611Z,-0.64
2023-02-04T22:51:34.036Z,-0.65
2023-02-04T22:54:34.980Z,-0.61
2023-02-04T22:57:07.417Z,-0.68
2023-02-04T22:59:49.271Z,-0.68
2023-02-04T23:02:43.228Z,-0.64
2023-02-04T23:05:57.595Z,-0.55
2023-02-04T23:11:55.610Z,-0.83
2023-02-04T23:14:37.380Z,-0.75
2023-02-04T23:20:05.780Z,-0.76
2023-02-04T23:22:32.718Z,-0.83
2023-02-04T23:25:03.756Z,-0.82
2023-02-04T23:27:41.237Z,-0.73
2023-02-04T23:30:10.594Z,-0.74
2023-02-04T23:32:49.143Z,-0.89
2023-02-04T23:35:17.897Z,-0.78
2023-02-04T23:38:14.392Z,-0.90
2023-02-04T23:40:43.624Z,-0.95
2023-02-04T23:43:10.957Z,-0.90
2023-02-04T23:45:47.123Z,-1.01
2023-02-04T23:48:13.876Z,-1.10
2023-02-04T23:50:40.779Z,-1.12
2023-02-04T23:53:33.126Z,-1.12
2023-02-04T23:56:02.832Z,-1.10
2023-02-04T23:58:29.487Z,-1.18
